Wildwood, Minnesota
Current Conditions -  °F | °C
As of 3:13 AM on Monday 22 Dec 2014 (Local Time) from KFOZ Reporting Station
Light Snow Light Snow  
Wind Chill: 30°   Ceiling: 600
Heat Index: 34°   Visibility: 5mi
Dew Point: 32°   Wind: 5mph
Humidity: 93%   Direction: 140°SE
Pressure: 29.64"   Gusts: NA
Location:  47.8312°N, 94.1459°W
Report Text: KFOZ 220913Z AUTO 14004KT 5SM -SN OVC006 01/00 A2964 RMK AO2
Loading
Personal Weather Stations






























Interactive Weather Map New forecast layout! Learn more

10-Day Weather Forecast

Advertisements
Track Severe Weather on mobile